Time;durP1;ratioP1;P1;durP2;ratioP2;P2;SDS_P1;SDS_P2;PMS_P1;PMS_P2;Temp;Humidity;BMP_temperature;BMP_pressure;BME280_temperature;BME280_humidity;BME280_pressure;Samples;Min_cycle;Max_cycle;Signal;HPM_P1;HPM_P2
2023/08/19 00:02:11;;;;;;;5.97;5.20;;;;;;;22.08;64.72;97908.00;10333666;28;20129;-66
2023/08/19 00:07:32;;;;;;;6.80;4.80;;;;;;;22.05;65.10;97901.50;10333558;28;20085;-66
2023/08/19 00:12:54;;;;;;;9.23;5.00;;;;;;;21.94;65.32;97905.50;10332360;28;20046;-66
2023/08/19 00:18:16;;;;;;;7.95;5.90;;;;;;;21.90;65.92;97899.69;10332671;28;20551;-67
2023/08/19 00:23:37;;;;;;;6.53;5.30;;;;;;;21.85;66.13;97906.69;10333413;28;20457;-67
2023/08/19 00:28:58;;;;;;;7.15;5.28;;;;;;;21.82;66.48;97905.19;10340723;28;20540;-67
2023/08/19 00:34:18;;;;;;;6.82;5.75;;;;;;;21.71;66.88;97898.50;10341599;28;20062;-67
2023/08/19 00:39:39;;;;;;;7.38;5.28;;;;;;;21.64;66.93;97902.59;10340434;28;20117;-67
2023/08/19 00:45:00;;;;;;;12.75;5.68;;;;;;;21.61;67.37;97898.97;10341196;28;20126;-66
2023/08/19 00:50:20;;;;;;;8.35;5.50;;;;;;;21.55;67.93;97915.13;10326323;28;20184;-67
2023/08/19 00:55:41;;;;;;;7.30;6.18;;;;;;;21.50;68.31;97899.38;10339796;28;20058;-67
2023/08/19 01:01:02;;;;;;;7.53;5.95;;;;;;;21.48;68.18;97899.31;10339527;28;20070;-66
2023/08/19 01:06:29;;;;;;;6.57;5.78;;;;;;;21.36;68.73;97906.13;10325710;28;20201;-67
2023/08/19 01:11:56;;;;;;;7.45;5.95;;;;;;;21.32;69.19;97897.47;10339273;28;20146;-67
2023/08/19 01:17:17;;;;;;;9.60;5.55;;;;;;;21.22;69.29;97894.31;10352726;28;20073;-67
2023/08/19 01:22:44;;;;;;;7.85;6.72;;;;;;;21.17;69.66;97886.38;10338753;28;20532;-67
2023/08/19 01:28:06;;;;;;;7.72;6.50;;;;;;;21.06;69.60;97882.53;10338596;28;20069;-66
2023/08/19 01:33:27;;;;;;;10.75;6.85;;;;;;;20.98;70.14;97876.63;10339140;28;20469;-67
2023/08/19 01:39:03;;;;;;;7.95;6.72;;;;;;;20.96;70.52;97888.63;10337111;28;20478;-67
2023/08/19 01:44:23;;;;;;;10.13;8.13;;;;;;;20.98;70.75;97876.63;10337736;28;20125;-66
2023/08/19 01:49:45;;;;;;;10.77;6.75;;;;;;;21.01;70.96;97875.28;10324251;28;20128;-67
2023/08/19 01:55:06;;;;;;;8.32;7.22;;;;;;;20.98;71.20;97879.47;10337051;28;20486;-66
2023/08/19 02:00:28;;;;;;;12.98;7.15;;;;;;;20.88;71.63;97879.16;10338193;28;20121;-66
2023/08/19 02:05:48;;;;;;;9.35;7.50;;;;;;;20.93;71.88;97877.88;10337720;28;20154;-67
2023/08/19 02:11:09;;;;;;;11.30;8.50;;;;;;;20.97;72.05;97884.41;10336817;28;20157;-66
2023/08/19 02:16:30;;;;;;;11.93;7.50;;;;;;;20.96;72.18;97880.13;10336474;28;20073;-67
2023/08/19 02:21:51;;;;;;;11.80;8.23;;;;;;;20.98;72.02;97883.00;10350137;28;20129;-66
2023/08/19 02:27:12;;;;;;;8.90;7.88;;;;;;;20.91;73.25;97884.22;10337300;28;20465;-67
2023/08/19 02:32:33;;;;;;;9.98;7.45;;;;;;;20.84;72.72;97886.19;10335956;28;20156;-67
2023/08/19 02:37:54;;;;;;;11.65;7.60;;;;;;;20.82;73.33;97883.25;10336865;28;20074;-66
2023/08/19 02:43:14;;;;;;;10.95;7.68;;;;;;;20.81;73.40;97890.31;10321891;28;20125;-67
2023/08/19 02:48:35;;;;;;;9.30;7.70;;;;;;;20.75;73.55;97881.66;10336407;28;20053;-66
2023/08/19 02:53:55;;;;;;;9.13;7.47;;;;;;;20.75;73.48;97883.72;10335225;28;20117;-67
2023/08/19 02:59:18;;;;;;;8.27;6.10;;;;;;;20.72;73.81;97885.78;10335855;28;20404;-66
2023/08/19 03:04:38;;;;;;;10.25;7.65;;;;;;;20.70;74.10;97880.06;10335869;28;20129;-66
2023/08/19 03:09:59;;;;;;;9.63;7.43;;;;;;;20.63;74.26;97883.38;10334650;28;20117;-67
2023/08/19 03:15:20;;;;;;;8.68;7.10;;;;;;;20.54;74.37;97882.41;10334250;28;20126;-67
2023/08/19 03:20:41;;;;;;;8.98;7.03;;;;;;;20.47;74.85;97883.63;10333898;28;20113;-67
2023/08/19 03:26:02;;;;;;;9.05;7.68;;;;;;;20.35;75.13;97881.09;10293843;28;20116;-66
2023/08/19 03:31:24;;;;;;;8.93;7.35;;;;;;;20.34;74.75;97893.09;10347243;28;20122;-67
2023/08/19 03:36:46;;;;;;;11.23;6.88;;;;;;;20.27;75.20;97892.91;10333614;28;20246;-67
2023/08/19 03:42:07;;;;;;;9.53;7.23;;;;;;;20.22;75.68;97888.50;10306555;28;20070;-67
2023/08/19 03:47:28;;;;;;;8.55;6.60;;;;;;;20.22;75.76;97882.81;10333883;28;20125;-66
2023/08/19 03:52:50;;;;;;;7.88;6.88;;;;;;;20.15;75.94;97877.63;10332774;28;20125;-66
2023/08/19 03:58:10;;;;;;;9.10;6.82;;;;;;;20.18;76.05;97879.88;10332680;28;20580;-67
2023/08/19 04:03:31;;;;;;;8.63;7.43;;;;;;;20.21;76.32;97892.72;10332929;28;20085;-67
2023/08/19 04:08:52;;;;;;;8.55;6.70;;;;;;;20.17;75.90;97898.25;10332387;28;20077;-66
2023/08/19 04:14:13;;;;;;;10.20;6.93;;;;;;;20.09;76.34;97908.59;10318973;28;20142;-66
2023/08/19 04:19:35;;;;;;;8.45;7.60;;;;;;;20.20;76.29;97913.22;10332334;28;20117;-67
2023/08/19 04:24:56;;;;;;;11.77;8.32;;;;;;;20.24;76.83;97919.72;10332172;28;20122;-66
2023/08/19 04:30:17;;;;;;;11.82;8.68;;;;;;;20.28;76.31;97922.72;10346019;28;20509;-68
2023/08/19 04:35:37;;;;;;;11.23;8.45;;;;;;;20.37;76.65;97926.53;10332866;28;20117;-67
2023/08/19 04:40:59;;;;;;;13.73;7.45;;;;;;;20.55;76.92;97926.38;10318398;28;20747;-66
2023/08/19 04:46:28;;;;;;;12.30;8.70;;;;;;;20.84;76.31;97942.91;10307076;28;20127;-67
2023/08/19 04:51:49;;;;;;;12.10;8.65;;;;;;;21.18;75.90;97945.31;10331633;28;20121;-66
2023/08/19 04:57:10;;;;;;;9.07;8.18;;;;;;;21.55;75.88;97937.84;10332633;28;20142;-67
2023/08/19 05:02:31;;;;;;;10.07;8.25;;;;;;;22.06;75.47;97945.59;10345221;28;20058;-67
2023/08/19 05:07:52;;;;;;;9.32;8.40;;;;;;;22.65;74.51;97961.28;10317937;28;20069;-67
2023/08/19 05:13:12;;;;;;;12.55;8.93;;;;;;;23.26;73.15;97970.47;10333790;28;20132;-67
2023/08/19 05:18:34;;;;;;;13.27;8.55;;;;;;;23.60;71.39;97970.47;10339924;28;20125;-67
2023/08/19 05:23:56;;;;;;;13.93;8.65;;;;;;;24.24;70.60;97982.38;10339370;28;20077;-66
2023/08/19 05:29:16;;;;;;;12.05;8.90;;;;;;;25.05;69.33;97982.97;10338382;28;20462;-66
2023/08/19 05:34:37;;;;;;;11.73;8.50;;;;;;;25.56;66.82;97986.47;10338402;28;20497;-67
2023/08/19 05:39:58;;;;;;;9.40;8.43;;;;;;;26.26;61.96;97993.69;10310872;28;20047;-67
2023/08/19 05:45:19;;;;;;;11.98;8.15;;;;;;;32.55;54.58;97994.03;10337798;28;20058;-67
2023/08/19 05:50:40;;;;;;;9.55;7.60;;;;;;;37.28;41.58;97994.34;10338624;28;20054;-69
2023/08/19 05:56:01;;;;;;;8.70;6.57;;;;;;;40.79;33.98;97993.22;10337931;28;20481;-69
2023/08/19 06:01:22;;;;;;;7.63;6.27;;;;;;;42.98;29.05;97993.84;10337115;28;20059;-69
2023/08/19 06:06:45;;;;;;;10.65;5.75;;;;;;;44.59;25.48;98008.03;10336881;28;20047;-69
2023/08/19 06:12:06;;;;;;;6.55;5.65;;;;;;;45.22;22.64;98006.72;10336823;28;20497;-69
2023/08/19 06:17:27;;;;;;;6.32;5.43;;;;;;;45.62;20.95;98014.28;10336719;28;20443;-70
2023/08/19 06:22:48;;;;;;;5.45;4.95;;;;;;;46.45;19.43;98020.13;10337185;28;20042;-70
2023/08/19 06:28:09;;;;;;;5.38;4.88;;;;;;;47.69;19.08;98027.69;10336188;28;20069;-72
2023/08/19 06:33:30;;;;;;;5.35;4.28;;;;;;;48.95;17.85;98023.34;10337095;28;20089;-72
2023/08/19 06:39:04;;;;;;;8.35;5.40;;;;;;;48.81;16.33;98027.50;10335633;28;20100;-72
2023/08/19 06:44:26;;;;;;;6.00;4.32;;;;;;;50.60;15.96;98029.66;10335496;28;20050;-72
2023/08/19 06:49:47;;;;;;;6.78;4.60;;;;;;;50.18;15.36;98024.59;10322202;28;20057;-72
2023/08/19 06:55:09;;;;;;;7.68;4.07;;;;;;;50.14;15.00;98031.63;10336057;28;20053;-72
2023/08/19 07:00:31;;;;;;;4.93;3.90;;;;;;;50.08;15.18;98035.81;10335420;28;20058;-72
2023/08/19 07:05:52;;;;;;;6.18;3.97;;;;;;;50.37;14.71;98039.19;10321030;28;20093;-72
2023/08/19 07:11:15;;;;;;;6.88;3.45;;;;;;;51.43;14.54;98044.31;10334572;28;20046;-72
2023/08/19 07:16:36;;;;;;;6.30;3.78;;;;;;;52.21;13.15;98043.50;10335138;28;20082;-72
2023/08/19 07:21:57;;;;;;;6.93;3.90;;;;;;;53.07;12.67;98045.31;10334978;28;20073;-73
2023/08/19 07:27:18;;;;;;;6.78;3.58;;;;;;;53.40;12.08;98044.97;10334965;28;20053;-73
2023/08/19 07:32:40;;;;;;;6.00;3.90;;;;;;;54.59;11.41;98055.47;10333645;28;20061;-73
2023/08/19 07:38:01;;;;;;;6.22;3.50;;;;;;;53.42;11.47;98056.69;10333865;28;20054;-73
2023/08/19 07:43:22;;;;;;;4.80;3.20;;;;;;;54.95;11.45;98056.09;10333301;28;20055;-73
2023/08/19 07:48:44;;;;;;;7.10;3.25;;;;;;;54.59;11.07;98043.53;10319522;28;20125;-72
2023/08/19 07:54:05;;;;;;;4.80;2.88;;;;;;;55.02;10.86;98044.88;10319448;28;20049;-72
2023/08/19 07:59:26;;;;;;;5.30;2.88;;;;;;;56.04;10.40;98048.38;10332699;28;20061;-72
2023/08/19 08:04:47;;;;;;;4.68;2.35;;;;;;;56.91;9.53;98051.78;10333204;28;20417;-72
2023/08/19 08:10:09;;;;;;;4.82;2.30;;;;;;;55.64;9.70;98056.69;10333586;28;20054;-71
2023/08/19 08:15:30;;;;;;;4.28;2.35;;;;;;;55.96;9.51;98058.97;10333234;28;20081;-72
2023/08/19 08:20:52;;;;;;;4.13;2.25;;;;;;;57.52;8.52;98056.47;10333170;28;20534;-72
2023/08/19 08:26:14;;;;;;;5.15;2.10;;;;;;;57.23;8.09;98053.22;10333166;28;20046;-72
2023/08/19 08:31:35;;;;;;;5.13;2.10;;;;;;;56.49;8.29;98055.88;10333313;28;20046;-72
2023/08/19 08:36:56;;;;;;;3.58;2.08;;;;;;;56.48;9.01;98047.81;10332943;28;20485;-72
2023/08/19 08:42:18;;;;;;;2.45;1.90;;;;;;;55.70;8.73;98044.03;10332988;28;20066;-72
2023/08/19 08:47:40;;;;;;;2.83;1.70;;;;;;;55.49;8.97;98051.59;10336219;28;20050;-72
2023/08/19 08:53:02;;;;;;;3.25;1.88;;;;;;;55.53;9.05;98038.50;10340727;28;20065;-70
2023/08/19 08:58:23;;;;;;;3.03;1.73;;;;;;;55.67;8.53;98039.88;10339355;28;20093;-72
2023/08/19 09:03:45;;;;;;;5.15;1.88;;;;;;;55.13;9.48;98039.13;10340039;28;20062;-73
2023/08/19 09:09:12;;;;;;;3.63;1.73;;;;;;;56.86;8.09;98038.91;10340053;28;20070;-72
2023/08/19 09:14:46;;;;;;;2.05;1.80;;;;;;;57.33;7.67;98040.69;10339846;28;20122;-72
2023/08/19 09:20:08;;;;;;;2.72;1.60;;;;;;;54.65;8.41;98038.50;10338900;28;20043;-73
2023/08/19 09:25:29;;;;;;;3.78;1.67;;;;;;;54.94;8.85;98042.06;10338349;28;20054;-72
2023/08/19 09:30:52;;;;;;;3.15;1.83;;;;;;;55.87;8.84;98033.88;10339221;28;20473;-71
2023/08/19 09:36:13;;;;;;;4.00;1.88;;;;;;;55.80;8.20;98039.19;10339411;28;20042;-73
2023/08/19 09:41:36;;;;;;;3.38;2.00;;;;;;;57.36;7.90;98035.13;10337943;28;20118;-71
2023/08/19 09:47:00;;;;;;;2.22;2.03;;;;;;;56.92;8.35;98041.19;10337876;28;20506;-73
2023/08/19 09:52:21;;;;;;;2.47;1.58;;;;;;;56.07;7.36;98027.88;10337723;28;20053;-73
2023/08/19 09:57:48;;;;;;;1.80;1.58;;;;;;;55.13;7.79;98027.16;10337781;28;20094;-72
2023/08/19 10:03:11;;;;;;;2.30;1.60;;;;;;;56.59;7.78;98026.34;10338035;28;20501;-72
2023/08/19 10:08:32;;;;;;;3.13;1.80;;;;;;;56.81;7.69;98030.38;10337789;28;20097;-72
2023/08/19 10:13:53;;;;;;;4.30;1.73;;;;;;;57.47;7.25;98025.59;10337824;28;20085;-72
2023/08/19 10:19:20;;;;;;;2.88;1.70;;;;;;;57.30;7.13;98027.56;10336543;28;20061;-72
2023/08/19 10:24:41;;;;;;;2.35;1.60;;;;;;;55.74;7.57;98021.94;10323135;28;20073;-72
2023/08/19 10:30:22;;;;;;;2.25;1.60;;;;;;;53.14;9.17;98019.25;10336948;28;20050;-72
2023/08/19 10:35:59;;;;;;;3.55;1.65;;;;;;;51.75;10.63;98011.47;10336811;28;20408;-72
2023/08/19 10:41:30;;;;;;;2.92;1.70;;;;;;;52.46;10.05;98029.91;10336744;28;20054;-72
2023/08/19 10:46:51;;;;;;;3.90;1.88;;;;;;;52.97;9.73;98016.53;10336479;28;20078;-72
2023/08/19 10:52:19;;;;;;;2.15;1.60;;;;;;;53.08;9.48;98019.19;10335237;28;20038;-72
2023/08/19 10:57:41;;;;;;;3.92;2.00;;;;;;;54.62;8.00;98013.41;10335195;28;20054;-71
2023/08/19 11:03:02;;;;;;;2.47;1.90;;;;;;;55.41;8.15;98011.34;10321312;28;20054;-70
2023/08/19 11:08:22;;;;;;;3.17;2.20;;;;;;;56.95;6.80;97997.34;10334558;28;20053;-72
2023/08/19 11:13:44;;;;;;;2.15;1.90;;;;;;;57.75;6.63;97992.09;10319879;28;20058;-71
2023/08/19 11:19:05;;;;;;;5.60;2.28;;;;;;;57.16;6.25;97990.28;10320725;28;20069;-71
2023/08/19 11:24:30;;;;;;;3.45;2.42;;;;;;;55.85;7.52;97992.88;10335445;28;20054;-72
2023/08/19 11:29:51;;;;;;;2.47;2.22;;;;;;;53.50;8.26;97998.50;10334748;28;20057;-72
2023/08/19 11:35:12;;;;;;;3.88;2.80;;;;;;;50.19;9.86;97990.38;10333759;28;20082;-72
2023/08/19 11:40:34;;;;;;;3.17;2.28;;;;;;;48.67;10.35;97987.94;10334551;28;20039;-71
2023/08/19 11:45:55;;;;;;;2.58;2.30;;;;;;;45.82;12.65;97992.22;10333355;28;20055;-72
2023/08/19 11:51:15;;;;;;;6.68;2.45;;;;;;;42.29;16.04;97990.41;10333232;28;20077;-72
2023/08/19 11:56:55;;;;;;;6.32;2.90;;;;;;;40.77;18.33;97996.28;10334031;28;20074;-71
2023/08/19 12:02:16;;;;;;;2.90;2.40;;;;;;;39.50;19.52;97986.19;10333896;28;20113;-72
2023/08/19 12:07:42;;;;;;;2.78;2.28;;;;;;;39.08;19.95;97988.75;10332549;28;20046;-71
2023/08/19 12:13:03;;;;;;;2.90;2.60;;;;;;;39.04;19.95;97983.09;10332843;28;20125;-72
2023/08/19 12:18:24;;;;;;;5.00;2.40;;;;;;;38.74;20.53;97985.13;10333485;28;20077;-71
2023/08/19 12:23:44;;;;;;;7.00;2.55;;;;;;;38.28;21.37;97980.38;10338804;28;20141;-72
2023/08/19 12:29:05;;;;;;;5.10;2.60;;;;;;;37.52;22.16;97981.81;10342001;28;20077;-71
2023/08/19 12:34:27;;;;;;;3.35;2.95;;;;;;;36.90;23.30;97977.44;10341420;28;20416;-72
2023/08/19 12:39:48;;;;;;;2.95;2.67;;;;;;;37.01;23.39;97982.91;10341545;28;20054;-71
2023/08/19 12:45:09;;;;;;;3.05;2.83;;;;;;;37.04;23.04;97982.06;10340183;28;20050;-71
2023/08/19 12:50:30;;;;;;;4.82;2.72;;;;;;;36.76;23.77;97983.00;10341174;28;20108;-72
2023/08/19 12:55:50;;;;;;;3.00;2.70;;;;;;;36.35;23.88;97976.34;10340329;28;20054;-70
2023/08/19 13:01:11;;;;;;;5.57;2.78;;;;;;;36.43;24.13;97968.84;10339771;28;20046;-71
2023/08/19 13:06:33;;;;;;;3.10;2.80;;;;;;;36.16;24.17;97966.03;10340461;28;20054;-71
2023/08/19 13:11:54;;;;;;;4.75;2.83;;;;;;;36.22;24.10;97966.56;10339146;28;20053;-71
2023/08/19 13:17:14;;;;;;;4.13;2.80;;;;;;;35.94;23.88;97976.88;10339987;28;20050;-71
2023/08/19 13:22:35;;;;;;;4.72;2.97;;;;;;;35.48;24.74;97976.03;10338738;28;20049;-71
2023/08/19 13:27:56;;;;;;;2.97;2.67;;;;;;;34.92;25.64;97973.19;10339452;28;20050;-71
2023/08/19 13:33:17;;;;;;;;;;;;;;;34.84;25.09;97970.47;10338620;28;20056;-71
2023/08/19 13:38:39;;;;;;;4.75;2.60;;;;;;;34.95;24.89;97977.47;10339412;28;20348;-70
2023/08/19 13:44:00;;;;;;;3.28;2.30;;;;;;;34.68;24.52;97968.72;10339118;28;20066;-71
2023/08/19 13:49:22;;;;;;;4.50;2.63;;;;;;;34.46;25.21;97966.41;10324389;28;20051;-71
2023/08/19 13:54:43;;;;;;;4.15;2.22;;;;;;;34.77;25.09;97967.03;10323817;28;20054;-71
2023/08/19 14:00:10;;;;;;;4.07;2.38;;;;;;;34.91;25.34;97955.09;10337337;28;20065;-70
2023/08/19 14:05:31;;;;;;;2.67;2.40;;;;;;;34.93;24.68;97963.72;10336841;28;20062;-71
2023/08/19 14:10:52;;;;;;;4.75;2.78;;;;;;;34.65;24.94;97961.56;10336697;28;20089;-71
2023/08/19 14:16:13;;;;;;;5.90;2.65;;;;;;;34.47;24.99;97948.25;10337602;28;20441;-71
2023/08/19 14:21:34;;;;;;;5.13;2.30;;;;;;;34.40;25.08;97958.56;10350254;28;20077;-71
2023/08/19 14:26:55;;;;;;;3.10;2.40;;;;;;;34.61;25.09;97958.75;10336933;28;20118;-70
2023/08/19 14:32:15;;;;;;;2.95;2.40;;;;;;;34.52;24.79;97951.75;10336997;28;20066;-71
2023/08/19 14:37:36;;;;;;;3.25;2.38;;;;;;;34.32;24.69;97950.75;10336726;28;20070;-71
2023/08/19 14:43:01;;;;;;;5.63;2.63;;;;;;;34.01;25.28;97942.06;10335574;28;20561;-71
2023/08/19 14:48:21;;;;;;;2.90;2.42;;;;;;;33.89;25.58;97935.84;10335226;28;20066;-70
2023/08/19 14:53:42;;;;;;;3.17;2.17;;;;;;;34.03;25.82;97936.22;10336167;28;20121;-71
2023/08/19 14:59:03;;;;;;;3.63;2.05;;;;;;;34.22;25.37;97933.59;10336030;28;20513;-71
2023/08/19 15:04:24;;;;;;;4.03;2.17;;;;;;;34.05;25.09;97932.56;10334481;28;20134;-71
2023/08/19 15:09:45;;;;;;;;;;;;;;;33.53;25.61;97941.66;10336059;28;20076;-71
2023/08/19 15:15:07;;;;;;;3.30;2.25;;;;;;;33.45;25.86;97929.53;10334467;28;20017;-70
2023/08/19 15:20:28;;;;;;;2.92;2.28;;;;;;;33.26;25.73;97932.75;10334373;28;20126;-71
2023/08/19 15:25:48;;;;;;;4.63;2.25;;;;;;;33.19;26.04;97928.56;10334930;28;20592;-71
2023/08/19 15:31:09;;;;;;;3.73;2.37;;;;;;;32.88;26.58;97931.34;10334923;28;20496;-70
2023/08/19 15:36:30;;;;;;;4.10;2.40;;;;;;;32.61;26.74;97928.19;10334671;28;20077;-70
2023/08/19 15:41:50;;;;;;;6.20;2.47;;;;;;;32.55;26.72;97930.47;10333643;28;20691;-70
2023/08/19 15:47:12;;;;;;;3.97;2.08;;;;;;;32.61;26.71;97930.34;10333326;28;20517;-71
2023/08/19 15:52:32;;;;;;;11.75;2.90;;;;;;;32.54;26.72;97932.66;10334033;28;20596;-71
2023/08/19 15:57:53;;;;;;;6.20;3.03;;;;;;;32.40;27.26;97930.00;10333547;28;20088;-70
2023/08/19 16:03:14;;;;;;;4.55;2.20;;;;;;;32.21;27.47;97923.78;10333839;28;20057;-70
2023/08/19 16:08:35;;;;;;;4.70;2.43;;;;;;;32.21;27.19;97928.84;10333668;28;20046;-70
2023/08/19 16:13:56;;;;;;;6.87;2.43;;;;;;;32.18;27.01;97920.22;10332543;28;20480;-70
2023/08/19 16:19:17;;;;;;;5.30;2.80;;;;;;;32.05;27.89;97924.03;10333573;28;20477;-69
2023/08/19 16:24:38;;;;;;;4.43;2.42;;;;;;;31.95;28.00;97924.19;10333479;28;20046;-70
2023/08/19 16:30:00;;;;;;;6.18;2.58;;;;;;;31.90;28.11;97941.56;10332383;28;20146;-70
2023/08/19 16:35:21;;;;;;;4.75;2.67;;;;;;;31.79;28.52;97940.28;10333235;28;20436;-70
2023/08/19 16:40:42;;;;;;;5.18;2.67;;;;;;;31.70;28.13;97935.34;10333090;28;20043;-70
2023/08/19 16:46:03;;;;;;;5.50;2.60;;;;;;;31.61;28.53;97941.22;10332123;28;20043;-69
2023/08/19 16:51:25;;;;;;;6.18;3.00;;;;;;;31.50;28.92;97945.69;10331910;28;20109;-70
2023/08/19 16:56:46;;;;;;;3.13;2.83;;;;;;;31.42;28.82;97945.06;10332887;28;20058;-69
2023/08/19 17:02:07;;;;;;;3.65;2.90;;;;;;;31.28;29.22;97940.19;10332620;28;20374;-69
2023/08/19 17:07:28;;;;;;;5.90;2.87;;;;;;;31.06;29.38;97956.25;10332810;28;20066;-69
2023/08/19 17:12:49;;;;;;;4.20;3.70;;;;;;;30.89;30.27;97954.28;10340186;28;20077;-70
2023/08/19 17:18:10;;;;;;;4.57;3.23;;;;;;;30.67;31.40;97958.81;10338636;28;20094;-69
2023/08/19 17:23:31;;;;;;;5.07;4.25;;;;;;;30.42;32.25;97978.44;10325123;28;20058;-70
2023/08/19 17:28:52;;;;;;;5.47;3.20;;;;;;;30.19;33.50;97974.28;10339608;28;20042;-70
2023/08/19 17:34:13;;;;;;;4.90;3.20;;;;;;;30.07;33.66;97974.38;10339229;28;20117;-70
2023/08/19 17:39:34;;;;;;;5.63;3.85;;;;;;;29.89;34.50;97978.75;10339324;28;20480;-69
2023/08/19 17:44:55;;;;;;;9.18;3.78;;;;;;;29.66;35.03;97991.81;10324440;28;20038;-69
2023/08/19 17:50:16;;;;;;;7.10;3.30;;;;;;;29.47;35.54;97993.31;10338739;28;20089;-69
2023/08/19 17:55:38;;;;;;;6.20;3.38;;;;;;;29.37;35.81;97991.19;10310478;28;20396;-69
2023/08/19 18:01:00;;;;;;;6.55;3.40;;;;;;;29.24;35.84;97998.41;10338566;28;20050;-70
2023/08/19 18:06:21;;;;;;;9.30;4.22;;;;;;;29.10;36.42;98001.31;10336997;28;20065;-70
2023/08/19 18:11:42;;;;;;;6.00;3.92;;;;;;;28.93;36.95;98003.50;10338023;28;20054;-70
2023/08/19 18:17:03;;;;;;;5.90;4.03;;;;;;;28.79;37.32;98009.97;10337827;28;20061;-69
2023/08/19 18:22:24;;;;;;;7.80;4.70;;;;;;;28.59;37.93;98004.22;10336956;28;20042;-70
2023/08/19 18:27:46;;;;;;;7.17;3.90;;;;;;;28.41;38.21;98016.41;10336555;28;20061;-70
2023/08/19 18:33:07;;;;;;;5.00;4.15;;;;;;;28.21;38.56;98020.66;10337100;28;20047;-70
2023/08/19 18:38:28;;;;;;;7.15;4.93;;;;;;;28.06;39.33;98024.19;10322499;28;20051;-70
2023/08/19 18:43:49;;;;;;;6.88;4.00;;;;;;;27.92;39.35;98034.22;10335603;28;20107;-70
2023/08/19 18:49:10;;;;;;;7.47;4.78;;;;;;;27.77;40.11;98041.31;10336431;28;20118;-69
2023/08/19 18:54:30;;;;;;;5.63;4.43;;;;;;;27.69;40.05;98043.44;10335445;28;20050;-69
2023/08/19 18:59:52;;;;;;;6.93;4.20;;;;;;;27.57;40.85;98044.78;10336097;28;20070;-69
2023/08/19 19:05:13;;;;;;;6.30;4.55;;;;;;;27.50;40.95;98049.03;10335569;28;20058;-69
2023/08/19 19:10:34;;;;;;;6.93;4.35;;;;;;;27.44;41.01;98054.75;10334478;28;20065;-69
2023/08/19 19:15:55;;;;;;;6.30;3.92;;;;;;;27.37;41.17;98047.56;10335384;28;20058;-69
2023/08/19 19:21:16;;;;;;;5.72;4.25;;;;;;;27.28;41.69;98057.53;10334959;28;20412;-69
2023/08/19 19:26:37;;;;;;;4.60;3.65;;;;;;;27.19;41.88;98053.16;10320379;28;20400;-69
2023/08/19 19:31:58;;;;;;;8.88;4.78;;;;;;;27.12;42.52;98055.28;10333981;28;20054;-69
2023/08/19 19:37:19;;;;;;;5.55;4.03;;;;;;;27.01;43.14;98051.59;10334473;28;20176;-69
2023/08/19 19:42:40;;;;;;;7.13;3.78;;;;;;;26.96;43.48;98058.72;10333479;28;20076;-69
2023/08/19 19:48:00;;;;;;;6.78;3.83;;;;;;;26.87;43.58;98062.94;10306155;28;20038;-69
2023/08/19 19:53:22;;;;;;;6.95;3.85;;;;;;;26.81;44.36;98082.94;10334048;28;20053;-69
2023/08/19 19:58:45;;;;;;;5.18;4.07;;;;;;;26.72;44.78;98076.41;10333790;28;20050;-70
2023/08/19 20:04:06;;;;;;;;;;;;;;;26.71;45.05;98086.44;10334055;28;20082;-69
2023/08/19 20:09:27;;;;;;;5.93;3.90;;;;;;;26.67;44.56;98091.41;10333870;28;19921;-69
2023/08/19 20:14:48;;;;;;;8.38;4.03;;;;;;;26.64;44.39;98087.09;10332740;28;20076;-69
2023/08/19 20:20:09;;;;;;;7.20;4.03;;;;;;;26.56;44.79;98087.00;10333684;28;20434;-69
2023/08/19 20:25:30;;;;;;;5.55;4.05;;;;;;;26.51;44.78;98086.97;10318926;28;20157;-69
2023/08/19 20:30:51;;;;;;;9.25;4.50;;;;;;;26.46;45.17;98102.66;10332574;28;20043;-69
2023/08/19 20:36:12;;;;;;;5.82;4.60;;;;;;;26.40;45.28;98107.59;10332201;28;20109;-69
2023/08/19 20:41:32;;;;;;;9.18;4.75;;;;;;;26.22;45.53;98108.09;10333189;28;19928;-70
2023/08/19 20:46:53;;;;;;;6.80;4.10;;;;;;;26.08;45.67;98122.22;10341475;28;20129;-67
2023/08/19 20:52:14;;;;;;;4.57;4.13;;;;;;;26.04;45.84;98114.31;10339972;28;20050;-67
2023/08/19 20:57:35;;;;;;;5.13;3.80;;;;;;;26.01;45.99;98112.13;10340970;28;20101;-66
2023/08/19 21:02:56;;;;;;;6.75;4.82;;;;;;;25.96;45.90;98117.81;10340681;28;20058;-67
2023/08/19 21:08:18;;;;;;;6.63;4.38;;;;;;;25.94;46.67;98117.03;10326316;28;20051;-67
2023/08/19 21:13:38;;;;;;;6.57;4.18;;;;;;;25.81;46.26;98130.47;10339327;28;20049;-70
2023/08/19 21:18:59;;;;;;;8.02;3.88;;;;;;;25.73;46.69;98129.63;10339143;28;20038;-69
2023/08/19 21:24:20;;;;;;;6.85;3.70;;;;;;;25.79;46.92;98126.88;10339795;28;20098;-69
2023/08/19 21:29:41;;;;;;;6.43;3.53;;;;;;;25.82;46.48;98114.03;10339778;28;20524;-67
2023/08/19 21:35:02;;;;;;;6.95;4.13;;;;;;;25.80;46.76;98123.31;10325039;28;20050;-67
2023/08/19 21:40:23;;;;;;;7.03;3.60;;;;;;;25.76;46.85;98120.38;10339418;28;20038;-67
2023/08/19 21:45:44;;;;;;;4.63;3.22;;;;;;;25.67;46.85;98121.66;10338003;28;20069;-67
2023/08/19 21:51:05;;;;;;;4.47;3.47;;;;;;;25.57;46.66;98116.53;10324449;28;20042;-67
2023/08/19 21:56:26;;;;;;;6.28;3.42;;;;;;;25.57;47.05;98122.25;10336748;28;20050;-67
2023/08/19 22:01:47;;;;;;;4.25;3.58;;;;;;;25.62;46.44;98120.91;10338233;28;20043;-67
2023/08/19 22:07:08;;;;;;;5.13;3.33;;;;;;;25.54;46.10;98120.06;10337079;28;20074;-66
2023/08/19 22:12:29;;;;;;;4.95;3.60;;;;;;;25.56;45.91;98111.50;10323475;28;20054;-65
2023/08/19 22:17:49;;;;;;;5.50;3.75;;;;;;;25.56;45.78;98100.06;10337902;28;20070;-67
2023/08/19 22:23:10;;;;;;;4.35;3.67;;;;;;;25.56;46.19;98097.22;10337561;28;20107;-67
2023/08/19 22:28:31;;;;;;;6.95;3.90;;;;;;;25.52;46.13;98100.03;10336240;28;20436;-66
2023/08/19 22:33:53;;;;;;;4.68;3.75;;;;;;;25.42;46.69;98102.75;10336427;28;20065;-66
2023/08/19 22:39:14;;;;;;;7.60;3.63;;;;;;;25.32;47.50;98103.31;10335984;28;20511;-67
2023/08/19 22:44:35;;;;;;;4.43;3.80;;;;;;;25.28;47.89;98106.81;10337020;28;20078;-67
2023/08/19 22:49:56;;;;;;;6.45;3.97;;;;;;;25.23;48.12;98105.31;10335890;28;20121;-67
2023/08/19 22:55:17;;;;;;;6.93;4.40;;;;;;;25.20;48.49;98106.72;10321898;28;20469;-67
2023/08/19 23:00:37;;;;;;;5.68;3.88;;;;;;;25.11;49.14;98105.16;10368324;23;20038;-69
2023/08/19 23:05:58;;;;;;;6.22;3.95;;;;;;;25.03;49.12;98105.00;10334988;28;20475;-68
2023/08/19 23:11:19;;;;;;;10.00;3.88;;;;;;;25.00;49.41;98107.09;10335874;28;20046;-67
2023/08/19 23:16:40;;;;;;;6.80;3.92;;;;;;;24.96;49.41;98114.84;10348118;28;20058;-66
2023/08/19 23:22:01;;;;;;;7.07;4.00;;;;;;;24.96;49.81;98117.72;10348165;28;20046;-68
2023/08/19 23:27:21;;;;;;;6.72;4.03;;;;;;;24.96;49.59;98112.00;10335156;28;20104;-68
2023/08/19 23:32:42;;;;;;;6.53;4.00;;;;;;;24.93;49.94;98119.81;10334997;28;20096;-67
2023/08/19 23:38:03;;;;;;;6.45;4.03;;;;;;;24.91;50.19;98107.66;10334735;28;20111;-67
2023/08/19 23:43:24;;;;;;;5.90;3.78;;;;;;;24.90;50.15;98109.03;10333688;28;20042;-67
2023/08/19 23:48:45;;;;;;;5.93;3.90;;;;;;;24.88;50.16;98111.84;10334539;28;20058;-67
2023/08/19 23:54:07;;;;;;;5.20;3.92;;;;;;;24.83;50.34;98114.66;10333963;28;20121;-67
2023/08/19 23:59:28;;;;;;;7.07;3.88;;;;;;;24.84;50.41;98113.25;10334015;28;20386;-67
